Wolsingham, United Kingdom
Current Conditions -  °F | °C
As of 8:20 AM on Tuesday 21 Oct 2014 (Local Time) from EGNT Reporting Station
Scattered Clouds Scattered Clouds  
Wind Chill: 40°   Ceiling: Unl
Heat Index: 48°   Visibility: 6mi
Dew Point: 41°   Wind: 29mph
Humidity: 76%   Direction: 280°W
Pressure: 29.23"   Gusts: 40mph
Location:  54.73°N, 1.88°W
Report Text: EGNT 210720Z 28025G35KT 9999 FEW020 SCT040 09/05 Q0990
Loading
Personal Weather Stations






























Interactive Weather Map
Tropical Storm Tracking
New forecast layout! Learn more

10-Day Weather Forecast

Advertisements
Track Severe Weather on mobile